Time;durP1;ratioP1;P1;durP2;ratioP2;P2;SDS_P1;SDS_P2;PMS_P1;PMS_P2;Temp;Humidity;BMP_temperature;BMP_pressure;BME280_temperature;BME280_humidity;BME280_pressure;Samples;Min_cycle;Max_cycle;Signal;HPM_P1;HPM_P2
2022/07/09 00:02:00;;;;;;;8.07;4.28;;;16.90;99.90;;;;;;5059388;28;20094;-70
2022/07/09 00:04:26;;;;;;;13.02;5.32;;;16.90;99.90;;;;;;5058266;28;20044;-70
2022/07/09 00:06:51;;;;;;;11.15;4.78;;;16.90;99.90;;;;;;5058949;28;20365;-70
2022/07/09 00:09:17;;;;;;;9.02;4.22;;;16.90;99.90;;;;;;5076438;28;20037;-70
2022/07/09 00:11:43;;;;;;;8.65;4.93;;;16.90;99.90;;;;;;5059095;28;20139;-70
2022/07/09 00:14:11;;;;;;;8.27;4.55;;;16.80;99.90;;;;;;5059776;28;20056;-70
2022/07/09 00:16:36;;;;;;;10.25;4.32;;;16.80;99.90;;;;;;5058680;28;20044;-70
2022/07/09 00:19:03;;;;;;;11.00;4.78;;;16.80;99.90;;;;;;5058669;28;20105;-70
2022/07/09 00:21:29;;;;;;;9.57;5.00;;;16.70;99.90;;;;;;5076500;28;20048;-70
2022/07/09 00:23:54;;;;;;;6.82;3.65;;;16.70;99.90;;;;;;5058661;28;20387;-70
2022/07/09 00:26:20;;;;;;;10.63;4.50;;;16.70;99.90;;;;;;5076483;28;20044;-70
2022/07/09 00:28:45;;;;;;;9.35;4.47;;;16.70;99.90;;;;;;5062452;28;20329;-71
2022/07/09 00:31:11;;;;;;;11.65;4.97;;;16.70;99.90;;;;;;5078587;28;20116;-70
2022/07/09 00:33:36;;;;;;;10.00;3.88;;;16.70;99.90;;;;;;5096450;28;20044;-70
2022/07/09 00:36:02;;;;;;;9.98;4.45;;;16.70;99.90;;;;;;5078346;28;20120;-70
2022/07/09 00:38:28;;;;;;;9.52;4.25;;;16.70;99.90;;;;;;5096378;28;20439;-70
2022/07/09 00:40:53;;;;;;;7.63;3.60;;;16.70;99.90;;;;;;5078069;28;20059;-70
2022/07/09 00:43:21;;;;;;;7.45;3.63;;;16.80;99.90;;;;;;5093582;28;20082;-70
2022/07/09 00:45:47;;;;;;;8.75;3.80;;;16.70;99.90;;;;;;5069386;28;20040;-70
2022/07/09 00:48:13;;;;;;;12.40;4.35;;;16.70;99.90;;;;;;5058371;28;20127;-70
2022/07/09 00:50:43;;;;;;;10.48;4.75;;;16.60;99.90;;;;;;5058019;28;20056;-70
2022/07/09 00:53:23;;;;;;;10.85;3.78;;;16.70;99.90;;;;;;5075436;28;20052;-70
2022/07/09 00:55:49;;;;;;;12.48;4.03;;;16.70;99.90;;;;;;5075930;28;20362;-70
2022/07/09 00:58:19;;;;;;;9.52;4.28;;;16.60;99.90;;;;;;5075771;28;20036;-70
2022/07/09 01:00:45;;;;;;;9.43;4.43;;;16.80;99.90;;;;;;5073851;28;20103;-70
2022/07/09 01:03:11;;;;;;;10.43;3.95;;;16.80;99.90;;;;;;5077834;28;20066;-70
2022/07/09 01:05:36;;;;;;;12.15;4.47;;;16.80;99.90;;;;;;5095862;28;20456;-70
2022/07/09 01:08:07;;;;;;;11.88;4.22;;;16.80;99.90;;;;;;5078181;28;20112;-70
2022/07/09 01:10:33;;;;;;;10.93;4.13;;;16.80;99.90;;;;;;5078208;28;20128;-71
2022/07/09 01:12:59;;;;;;;10.32;4.15;;;16.80;99.90;;;;;;5095894;28;20040;-70
2022/07/09 01:15:25;;;;;;;8.57;3.47;;;16.90;99.90;;;;;;5079934;28;20097;-70
2022/07/09 01:17:52;;;;;;;7.40;4.30;;;16.90;99.90;;;;;;5075662;28;20055;-70
2022/07/09 01:20:24;;;;;;;8.20;4.00;;;16.90;99.90;;;;;;5075527;28;20116;-70
2022/07/09 01:22:51;;;;;;;12.20;4.30;;;16.90;99.90;;;;;;5075754;28;20036;-70
2022/07/09 01:25:18;;;;;;;8.95;3.90;;;16.90;99.90;;;;;;5058596;28;20413;-71
2022/07/09 01:27:44;;;;;;;12.20;4.05;;;16.90;99.90;;;;;;5057639;28;20465;-70
2022/07/09 01:30:22;;;;;;;9.32;3.65;;;16.90;99.90;;;;;;5089614;28;20131;-70
2022/07/09 01:32:52;;;;;;;11.95;4.50;;;16.90;99.90;;;;;;5077675;28;20044;-70
2022/07/09 01:35:18;;;;;;;11.93;3.85;;;16.90;99.90;;;;;;5060811;28;20054;-70
2022/07/09 01:37:43;;;;;;;11.35;3.67;;;16.90;99.90;;;;;;5077429;28;20079;-71
2022/07/09 01:40:13;;;;;;;12.60;3.67;;;16.90;99.90;;;;;;5077208;28;20067;-71
2022/07/09 01:42:41;;;;;;;7.60;3.33;;;17.00;99.90;;;;;;5060507;28;20082;-70
2022/07/09 01:45:07;;;;;;;12.88;4.65;;;16.90;99.90;;;;;;5081104;28;20445;-70
2022/07/09 01:47:32;;;;;;;9.35;3.80;;;17.00;99.90;;;;;;5095491;28;20043;-70
2022/07/09 01:49:58;;;;;;;11.23;3.85;;;17.00;99.90;;;;;;5077330;28;20181;-70
2022/07/09 01:52:24;;;;;;;10.68;3.88;;;17.00;99.90;;;;;;5077023;28;20052;-70
2022/07/09 01:54:50;;;;;;;7.50;3.45;;;17.00;99.90;;;;;;5095257;28;20136;-70
2022/07/09 01:57:16;;;;;;;12.20;4.35;;;17.00;99.90;;;;;;5094821;28;20097;-70
2022/07/09 01:59:41;;;;;;;10.65;4.40;;;17.00;99.90;;;;;;5074652;28;20043;-70
2022/07/09 02:02:07;;;;;;;13.00;3.72;;;17.00;99.90;;;;;;5071820;28;20115;-70
2022/07/09 02:04:32;;;;;;;9.70;4.25;;;16.90;99.90;;;;;;5071429;28;20057;-70
2022/07/09 02:06:58;;;;;;;11.82;4.32;;;16.90;99.90;;;;;;5074782;28;20479;-70
2022/07/09 02:09:24;;;;;;;10.60;3.58;;;16.90;99.90;;;;;;5057383;28;20052;-70
2022/07/09 02:11:49;;;;;;;8.57;3.63;;;16.90;99.90;;;;;;5074783;28;20044;-71
2022/07/09 02:14:16;;;;;;;8.13;4.10;;;16.90;99.90;;;;;;5057024;28;20124;-70
2022/07/09 02:16:42;;;;;;;17.88;4.65;;;16.80;99.90;;;;;;5078822;28;20456;-70
2022/07/09 02:19:07;;;;;;;18.40;3.72;;;16.80;99.90;;;;;;5077001;28;20055;-70
2022/07/09 02:21:33;;;;;;;7.65;4.15;;;16.80;99.90;;;;;;5076611;28;20192;-71
2022/07/09 02:23:59;;;;;;;14.48;4.72;;;16.70;99.90;;;;;;5076801;28;20448;-71
2022/07/09 02:26:29;;;;;;;20.23;4.53;;;16.70;99.90;;;;;;5077077;28;20101;-70
2022/07/09 02:28:55;;;;;;;11.48;4.55;;;16.70;99.90;;;;;;5077030;28;20271;-70
2022/07/09 02:31:21;;;;;;;10.82;4.55;;;16.70;99.90;;;;;;5072701;28;20040;-70
2022/07/09 02:33:46;;;;;;;7.43;4.00;;;16.70;99.90;;;;;;5074498;28;20135;-70
2022/07/09 02:36:12;;;;;;;12.65;5.38;;;16.70;99.90;;;;;;5057045;28;20100;-70
2022/07/09 02:38:38;;;;;;;9.50;4.38;;;16.70;99.90;;;;;;5056985;28;20075;-70
2022/07/09 02:41:04;;;;;;;8.48;4.43;;;16.90;99.90;;;;;;5056962;28;20480;-70
2022/07/09 02:43:29;;;;;;;17.92;4.82;;;16.80;99.90;;;;;;5078346;28;20037;-70
2022/07/09 02:45:55;;;;;;;10.90;4.80;;;16.80;99.90;;;;;;5078066;28;20047;-71
2022/07/09 02:48:27;;;;;;;10.93;4.40;;;16.80;99.90;;;;;;5061539;28;20345;-70
2022/07/09 02:50:53;;;;;;;13.52;5.32;;;16.70;99.90;;;;;;5060476;28;20115;-70
2022/07/09 02:53:19;;;;;;;9.80;4.68;;;16.70;99.90;;;;;;5060065;28;20052;-70
2022/07/09 02:55:45;;;;;;;14.23;4.57;;;16.70;99.90;;;;;;5060960;28;20161;-70
2022/07/09 02:58:12;;;;;;;10.85;4.80;;;16.70;99.90;;;;;;5078053;28;20127;-70
2022/07/09 03:00:41;;;;;;;8.10;3.80;;;16.70;99.90;;;;;;5043379;28;20044;-70
2022/07/09 03:03:08;;;;;;;9.40;4.80;;;16.70;99.90;;;;;;5077740;28;20040;-70
2022/07/09 03:05:34;;;;;;;13.07;5.15;;;16.60;99.90;;;;;;5060136;28;20040;-70
2022/07/09 03:08:00;;;;;;;9.23;4.95;;;16.60;99.90;;;;;;5059985;28;20051;-70
2022/07/09 03:10:26;;;;;;;11.20;4.80;;;16.60;99.90;;;;;;5060260;28;20044;-70
2022/07/09 03:12:52;;;;;;;9.88;4.55;;;16.50;99.90;;;;;;5043102;28;20040;-70
2022/07/09 03:15:17;;;;;;;9.00;3.60;;;16.50;99.90;;;;;;5043145;28;20040;-69
2022/07/09 03:17:47;;;;;;;10.65;4.47;;;16.50;99.90;;;;;;5059752;28;20051;-69
2022/07/09 03:20:13;;;;;;;10.77;4.38;;;16.40;99.90;;;;;;5059739;28;20044;-70
2022/07/09 03:22:42;;;;;;;10.80;4.20;;;16.30;99.90;;;;;;5077640;28;20048;-70
2022/07/09 03:25:08;;;;;;;14.95;5.22;;;16.30;99.90;;;;;;5060545;28;20044;-70
2022/07/09 03:27:35;;;;;;;9.95;3.83;;;16.30;99.90;;;;;;5077574;28;20032;-70
2022/07/09 03:30:01;;;;;;;8.23;4.32;;;16.30;99.90;;;;;;5059543;28;20045;-70
2022/07/09 03:32:27;;;;;;;7.72;4.18;;;16.20;99.90;;;;;;5085376;28;20139;-70
2022/07/09 03:34:53;;;;;;;10.50;4.20;;;16.20;99.90;;;;;;5097602;28;20178;-70
2022/07/09 03:37:19;;;;;;;9.00;3.92;;;16.10;99.90;;;;;;5097508;28;20036;-70
2022/07/09 03:39:45;;;;;;;7.40;3.70;;;16.20;99.90;;;;;;5097628;28;20059;-70
2022/07/09 03:42:11;;;;;;;9.35;4.45;;;16.10;99.90;;;;;;5097624;28;20067;-70
2022/07/09 03:44:38;;;;;;;8.70;4.13;;;16.20;99.90;;;;;;5097287;28;20036;-70
2022/07/09 03:47:04;;;;;;;10.05;3.38;;;16.10;99.90;;;;;;5075194;28;20068;-70
2022/07/09 03:49:30;;;;;;;6.07;3.40;;;16.10;99.90;;;;;;5059365;28;20052;-70
2022/07/09 03:51:56;;;;;;;8.25;4.45;;;16.10;99.90;;;;;;5076798;28;20044;-70
2022/07/09 03:54:21;;;;;;;6.60;4.22;;;16.10;99.90;;;;;;5058794;28;20053;-70
2022/07/09 03:56:47;;;;;;;10.48;4.18;;;16.10;99.90;;;;;;5077017;28;20041;-70
2022/07/09 03:59:12;;;;;;;11.80;4.57;;;16.00;99.90;;;;;;5059460;28;20036;-69
2022/07/09 04:01:38;;;;;;;11.50;4.75;;;16.20;99.90;;;;;;5076585;28;20040;-69
2022/07/09 04:04:04;;;;;;;11.15;4.28;;;16.20;99.90;;;;;;5059369;28;20072;-70
2022/07/09 04:06:30;;;;;;;11.73;4.25;;;16.20;99.90;;;;;;5076740;28;20357;-70
2022/07/09 04:08:56;;;;;;;9.55;3.90;;;16.20;99.90;;;;;;5058918;28;20044;-70
2022/07/09 04:11:21;;;;;;;11.43;4.47;;;16.30;99.90;;;;;;5077075;28;20051;-69
2022/07/09 04:13:47;;;;;;;12.65;4.97;;;16.30;99.90;;;;;;5076726;28;20036;-70
2022/07/09 04:16:13;;;;;;;12.60;4.40;;;16.40;99.90;;;;;;5058505;28;20052;-70
2022/07/09 04:18:43;;;;;;;7.20;3.67;;;16.40;99.90;;;;;;5058436;28;20076;-69
2022/07/09 04:21:11;;;;;;;7.43;3.85;;;16.40;99.90;;;;;;5076358;28;20037;-70
2022/07/09 04:23:37;;;;;;;7.95;4.18;;;16.40;99.90;;;;;;5076474;28;20036;-70
2022/07/09 04:26:03;;;;;;;9.10;3.85;;;16.50;99.90;;;;;;5059401;28;20044;-70
2022/07/09 04:28:28;;;;;;;9.50;3.75;;;16.50;99.90;;;;;;5058731;28;20123;-70
2022/07/09 04:30:55;;;;;;;7.65;4.22;;;16.50;99.90;;;;;;5072733;28;20097;-70
2022/07/09 04:33:21;;;;;;;9.82;4.55;;;16.60;99.90;;;;;;5078863;28;20075;-70
2022/07/09 04:35:46;;;;;;;9.20;3.72;;;16.60;99.90;;;;;;5078772;28;20464;-70
2022/07/09 04:38:12;;;;;;;6.57;3.33;;;16.60;99.90;;;;;;5078464;28;20075;-70
2022/07/09 04:40:41;;;;;;;7.38;3.65;;;16.70;99.90;;;;;;5078427;28;20059;-71
2022/07/09 04:43:07;;;;;;;6.00;3.80;;;16.70;99.90;;;;;;5078354;28;20165;-70
2022/07/09 04:45:34;;;;;;;9.75;3.30;;;16.70;99.90;;;;;;5084858;28;20068;-69
2022/07/09 04:47:59;;;;;;;8.68;3.55;;;16.80;99.90;;;;;;5058625;28;20052;-69
2022/07/09 04:50:26;;;;;;;9.63;3.92;;;16.80;99.90;;;;;;5075853;28;20369;-69
2022/07/09 04:52:51;;;;;;;9.57;3.97;;;16.90;99.90;;;;;;5077397;28;20388;-71
2022/07/09 04:55:17;;;;;;;8.35;3.72;;;16.90;99.90;;;;;;5069350;28;20057;-70
2022/07/09 04:57:43;;;;;;;8.13;3.83;;;16.90;99.90;;;;;;5086265;28;20404;-71
2022/07/09 05:00:13;;;;;;;8.27;3.83;;;17.00;99.90;;;;;;5074224;28;20040;-70
2022/07/09 05:02:40;;;;;;;9.73;4.05;;;17.00;99.90;;;;;;5057567;28;20123;-70
2022/07/09 05:05:06;;;;;;;10.55;3.63;;;17.10;99.90;;;;;;5074658;28;20066;-69
2022/07/09 05:07:33;;;;;;;9.20;2.95;;;17.10;99.90;;;;;;5058046;28;20048;-70
2022/07/09 05:10:01;;;;;;;7.55;3.00;;;17.10;99.90;;;;;;5057592;28;20040;-70
2022/07/09 05:12:27;;;;;;;5.55;3.00;;;17.10;99.90;;;;;;5058040;28;20044;-70
2022/07/09 05:14:52;;;;;;;6.60;3.17;;;17.20;99.90;;;;;;5058046;28;20059;-71
2022/07/09 05:17:18;;;;;;;7.07;3.78;;;17.30;99.90;;;;;;5075034;28;20036;-70
2022/07/09 05:19:43;;;;;;;8.70;3.80;;;17.30;99.90;;;;;;5075330;28;20076;-70
2022/07/09 05:22:12;;;;;;;7.03;3.35;;;17.50;99.90;;;;;;5074388;28;20053;-71
2022/07/09 05:24:37;;;;;;;10.05;4.18;;;17.40;99.90;;;;;;5059921;28;20048;-69
2022/07/09 05:27:03;;;;;;;7.88;3.60;;;17.60;99.90;;;;;;5076117;28;20067;-69
2022/07/09 05:29:29;;;;;;;6.60;3.55;;;17.70;99.90;;;;;;5090587;28;20455;-70
2022/07/09 05:31:57;;;;;;;7.93;2.95;;;17.90;99.90;;;;;;5081018;28;20047;-70
2022/07/09 05:34:23;;;;;;;4.40;2.70;;;18.10;99.90;;;;;;5088884;28;20059;-69
2022/07/09 05:36:49;;;;;;;8.32;3.60;;;18.30;99.90;;;;;;5060442;28;20036;-70
2022/07/09 05:39:15;;;;;;;8.98;3.13;;;18.30;99.90;;;;;;5095210;28;20448;-70
2022/07/09 05:41:41;;;;;;;7.60;2.90;;;18.30;99.90;;;;;;5074995;28;20346;-70
2022/07/09 05:44:07;;;;;;;7.85;3.60;;;18.30;99.90;;;;;;5077099;28;20061;-70
2022/07/09 05:46:32;;;;;;;7.95;3.00;;;18.30;99.90;;;;;;5080675;28;20136;-70
2022/07/09 05:48:58;;;;;;;6.35;3.08;;;18.20;99.90;;;;;;5074196;28;20126;-70
2022/07/09 05:51:23;;;;;;;4.93;2.75;;;18.20;99.90;;;;;;5077093;28;20127;-70
2022/07/09 05:53:49;;;;;;;7.47;2.90;;;18.30;99.90;;;;;;5062365;28;20040;-70
2022/07/09 05:56:14;;;;;;;6.22;2.75;;;18.30;99.90;;;;;;5053029;28;20087;-70
2022/07/09 05:58:45;;;;;;;9.40;3.30;;;18.30;99.90;;;;;;5038430;28;20118;-69
2022/07/09 06:01:12;;;;;;;4.00;2.45;;;18.30;99.90;;;;;;5057655;28;20041;-72
2022/07/09 06:03:42;;;;;;;7.03;2.85;;;18.30;99.90;;;;;;5054003;28;20037;-72
2022/07/09 06:06:11;;;;;;;5.28;2.88;;;18.30;99.90;;;;;;5055560;28;20446;-70
2022/07/09 06:08:37;;;;;;;9.82;2.80;;;18.30;99.90;;;;;;5038063;28;20053;-69
2022/07/09 06:11:02;;;;;;;6.22;2.58;;;18.40;99.90;;;;;;5046229;28;20503;-69
2022/07/09 06:13:28;;;;;;;6.57;2.90;;;18.40;99.90;;;;;;5045485;28;20053;-69
2022/07/09 06:15:55;;;;;;;7.55;3.40;;;18.40;99.90;;;;;;5055772;28;20354;-68
2022/07/09 06:18:22;;;;;;;6.72;3.17;;;18.50;99.90;;;;;;5048369;28;20056;-70
2022/07/09 06:20:48;;;;;;;7.97;2.80;;;18.40;99.90;;;;;;5045572;28;20084;-69
2022/07/09 06:23:13;;;;;;;5.30;2.75;;;18.50;99.90;;;;;;5068215;28;20120;-69
2022/07/09 06:25:40;;;;;;;9.45;3.22;;;18.50;99.90;;;;;;5095459;28;20094;-68
2022/07/09 06:28:06;;;;;;;5.80;2.60;;;18.50;99.90;;;;;;5040131;28;20040;-68
2022/07/09 06:30:33;;;;;;;5.38;2.47;;;18.50;99.90;;;;;;5070758;28;20040;-68
2022/07/09 06:32:59;;;;;;;5.90;2.95;;;18.50;99.90;;;;;;5084394;28;20041;-69
2022/07/09 06:35:25;;;;;;;11.02;2.90;;;18.50;99.90;;;;;;5061326;28;20057;-69
2022/07/09 06:37:51;;;;;;;8.63;3.13;;;18.50;99.90;;;;;;5078441;28;20468;-69
2022/07/09 06:40:16;;;;;;;8.88;2.60;;;18.60;99.90;;;;;;5078490;28;20036;-70
2022/07/09 06:42:42;;;;;;;7.35;2.78;;;18.70;99.90;;;;;;5076801;28;20032;-69
2022/07/09 06:45:11;;;;;;;6.88;2.30;;;18.80;99.90;;;;;;5041008;28;20189;-69
2022/07/09 06:47:37;;;;;;;5.40;2.47;;;18.90;99.90;;;;;;5062317;28;20041;-69
2022/07/09 06:50:03;;;;;;;6.60;2.55;;;19.00;99.90;;;;;;5071259;28;20036;-69
2022/07/09 06:52:28;;;;;;;8.82;2.67;;;19.10;99.90;;;;;;5081547;28;20048;-69
2022/07/09 06:54:54;;;;;;;8.20;2.83;;;19.10;99.90;;;;;;5080633;28;20055;-69
2022/07/09 06:57:20;;;;;;;7.10;2.65;;;19.10;99.90;;;;;;5076580;28;20051;-70
2022/07/09 06:59:46;;;;;;;6.13;2.40;;;19.10;99.90;;;;;;5066139;28;20046;-69
2022/07/09 07:02:17;;;;;;;8.35;2.35;;;19.00;99.90;;;;;;5076941;28;20095;-70
2022/07/09 07:04:43;;;;;;;5.60;2.20;;;19.10;99.90;;;;;;5068565;28;20040;-70
2022/07/09 07:07:12;;;;;;;3.25;1.70;;;19.10;99.90;;;;;;5077820;28;20047;-69
2022/07/09 07:09:38;;;;;;;5.32;2.45;;;19.10;99.90;;;;;;5074793;28;20059;-69
2022/07/09 07:12:04;;;;;;;5.03;2.33;;;19.20;99.90;;;;;;5077353;28;20037;-69
2022/07/09 07:14:29;;;;;;;10.43;2.22;;;19.20;99.90;;;;;;5060284;28;20127;-69
2022/07/09 07:16:55;;;;;;;4.10;1.70;;;19.20;99.90;;;;;;5073293;28;20131;-69
2022/07/09 07:19:21;;;;;;;3.08;1.90;;;19.20;99.90;;;;;;5097228;28;20036;-69
2022/07/09 07:21:47;;;;;;;4.80;2.15;;;19.30;99.90;;;;;;5066236;28;20045;-69
2022/07/09 07:24:13;;;;;;;4.95;2.17;;;19.30;99.90;;;;;;5073516;28;20098;-69
2022/07/09 07:26:42;;;;;;;4.85;1.80;;;19.30;99.90;;;;;;5063620;28;20037;-68
2022/07/09 07:29:07;;;;;;;8.73;1.88;;;19.30;99.90;;;;;;5091034;28;20055;-68
2022/07/09 07:31:35;;;;;;;3.55;1.75;;;19.50;99.90;;;;;;5076087;28;20040;-70
2022/07/09 07:34:00;;;;;;;8.32;2.10;;;19.70;99.90;;;;;;5060965;28;20140;-69
2022/07/09 07:36:26;;;;;;;4.18;1.48;;;19.90;99.90;;;;;;5059925;28;20501;-72
2022/07/09 07:38:53;;;;;;;2.58;1.65;;;19.90;99.90;;;;;;5059318;28;20052;-72
2022/07/09 07:41:21;;;;;;;6.80;2.70;;;20.10;99.90;;;;;;5042842;28;20119;-72
2022/07/09 07:43:48;;;;;;;5.57;2.05;;;20.50;99.90;;;;;;5076946;28;20063;-72
2022/07/09 07:46:14;;;;;;;9.45;1.85;;;20.80;99.90;;;;;;5077312;28;20036;-69
2022/07/09 07:48:43;;;;;;;6.00;1.50;;;20.80;99.90;;;;;;5077364;28;20039;-69
2022/07/09 07:51:09;;;;;;;3.97;1.80;;;21.10;99.90;;;;;;5070367;28;20089;-68
2022/07/09 07:53:36;;;;;;;7.10;2.00;;;21.50;99.90;;;;;;5075706;28;20045;-71
2022/07/09 07:56:05;;;;;;;3.67;1.33;;;21.60;99.90;;;;;;5058963;28;20079;-72
2022/07/09 07:58:32;;;;;;;4.55;1.52;;;21.60;99.90;;;;;;5076595;28;20375;-73
2022/07/09 08:00:57;;;;;;;5.93;1.35;;;21.60;99.90;;;;;;5059254;28;20079;-72
2022/07/09 08:03:23;;;;;;;3.85;1.30;;;21.50;99.90;;;;;;5088458;28;20094;-72
2022/07/09 08:05:49;;;;;;;5.78;1.40;;;21.50;99.90;;;;;;5097111;28;20463;-72
2022/07/09 08:08:14;;;;;;;4.40;1.40;;;21.40;99.90;;;;;;5075357;28;20143;-71
2022/07/09 08:10:43;;;;;;;3.03;1.30;;;21.70;99.90;;;;;;5076360;28;20123;-71
2022/07/09 08:13:08;;;;;;;4.05;1.60;;;22.00;99.90;;;;;;5072821;28;20170;-73
2022/07/09 08:15:34;;;;;;;4.13;1.10;;;22.40;99.90;;;;;;5059076;28;20047;-71
2022/07/09 08:17:59;;;;;;;2.90;1.48;;;22.20;99.90;;;;;;5067287;28;20039;-72
2022/07/09 08:20:25;;;;;;;5.90;1.50;;;22.40;99.90;;;;;;5075446;28;20071;-71
2022/07/09 08:22:51;;;;;;;4.68;1.52;;;23.00;99.90;;;;;;5058748;28;20043;-72
2022/07/09 08:25:16;;;;;;;5.65;1.50;;;23.00;99.90;;;;;;5081353;28;20353;-71
2022/07/09 08:27:42;;;;;;;4.53;1.30;;;23.20;99.90;;;;;;5074685;28;20127;-72
2022/07/09 08:30:11;;;;;;;3.83;1.02;;;23.40;99.90;;;;;;5071919;28;20037;-73
2022/07/09 08:32:38;;;;;;;2.63;1.15;;;23.30;99.90;;;;;;5042141;28;20040;-71
2022/07/09 08:35:05;;;;;;;3.08;1.20;;;22.80;99.90;;;;;;5087425;28;20040;-71
2022/07/09 08:37:30;;;;;;;4.75;1.50;;;22.90;99.90;;;;;;5096060;28;20105;-72
2022/07/09 08:39:56;;;;;;;3.25;1.50;;;23.00;99.90;;;;;;5059096;28;20048;-72
2022/07/09 08:42:21;;;;;;;5.00;1.20;;;23.40;99.90;;;;;;5075058;28;20118;-72
2022/07/09 08:44:47;;;;;;;4.88;1.10;;;24.00;99.90;;;;;;5041744;28;20059;-71
2022/07/09 08:47:15;;;;;;;5.40;1.20;;;24.20;99.90;;;;;;5058152;28;20044;-69
2022/07/09 08:49:42;;;;;;;3.35;1.27;;;24.20;99.90;;;;;;5076022;28;20107;-71
2022/07/09 08:52:08;;;;;;;6.65;1.08;;;25.10;99.90;;;;;;5044016;28;20044;-70
2022/07/09 08:54:39;;;;;;;5.18;1.02;;;25.70;99.90;;;;;;5081357;28;20071;-73
2022/07/09 08:57:07;;;;;;;5.32;1.23;;;26.40;99.90;;;;;;5062200;28;20044;-73
2022/07/09 08:59:33;;;;;;;6.53;1.13;;;26.20;99.90;;;;;;5068187;28;20058;-72
2022/07/09 09:02:06;;;;;;;3.42;1.08;;;25.60;99.90;;;;;;5061375;28;20052;-73
2022/07/09 09:04:34;;;;;;;3.88;1.40;;;24.80;99.90;;;;;;5057584;28;20048;-73
2022/07/09 09:07:11;;;;;;;4.57;1.52;;;24.40;99.90;;;;;;5057160;28;20040;-72
2022/07/09 09:09:36;;;;;;;4.93;1.40;;;24.00;99.90;;;;;;5057464;28;20060;-72
2022/07/09 09:12:02;;;;;;;7.05;1.48;;;23.40;99.90;;;;;;5063068;28;20036;-72
2022/07/09 09:14:29;;;;;;;3.58;1.20;;;23.50;99.90;;;;;;5095041;28;20460;-71
2022/07/09 09:17:04;;;;;;;4.47;1.40;;;24.10;99.90;;;;;;5063835;28;20045;-71
2022/07/09 09:19:29;;;;;;;3.85;1.00;;;24.00;99.90;;;;;;5073759;28;20048;-72
2022/07/09 09:21:55;;;;;;;3.05;1.00;;;24.40;99.90;;;;;;5060344;28;20040;-72
2022/07/09 09:24:26;;;;;;;5.25;1.25;;;24.20;99.90;;;;;;5059250;28;20525;-72
2022/07/09 09:26:55;;;;;;;3.33;1.10;;;23.90;99.90;;;;;;5082947;28;20412;-73
2022/07/09 09:29:21;;;;;;;2.67;1.13;;;23.50;99.90;;;;;;5055881;28;20048;-74
2022/07/09 09:31:46;;;;;;;7.15;1.30;;;23.30;99.90;;;;;;5074183;28;20044;-72
2022/07/09 09:34:17;;;;;;;3.83;1.00;;;23.20;99.90;;;;;;5094271;28;20092;-73
2022/07/09 09:36:51;;;;;;;3.85;1.05;;;23.40;99.90;;;;;;5077975;28;20032;-72
2022/07/09 09:39:25;;;;;;;4.07;1.35;;;23.50;99.90;;;;;;5056512;28;20123;-73
2022/07/09 09:41:52;;;;;;;4.72;1.20;;;23.80;99.90;;;;;;5057650;28;20045;-72
2022/07/09 09:44:19;;;;;;;3.90;1.50;;;24.00;99.90;;;;;;5074696;28;20046;-69
2022/07/09 09:46:45;;;;;;;4.35;1.27;;;23.90;99.90;;;;;;5072869;28;20096;-70
2022/07/09 09:49:14;;;;;;;5.30;1.27;;;24.00;99.90;;;;;;5077147;28;20044;-70
2022/07/09 09:51:51;;;;;;;4.68;0.90;;;24.10;99.90;;;;;;5093868;28;20124;-71
2022/07/09 09:54:18;;;;;;;5.47;1.50;;;24.10;99.90;;;;;;5058381;28;20052;-70
2022/07/09 09:56:44;;;;;;;5.05;1.05;;;23.60;99.90;;;;;;5052909;28;20053;-69
2022/07/09 09:59:11;;;;;;;3.67;1.33;;;23.10;99.90;;;;;;5054653;28;20033;-70
2022/07/09 10:01:42;;;;;;;3.90;1.08;;;22.60;99.90;;;;;;5039633;28;20365;-70
2022/07/09 10:04:13;;;;;;;3.72;1.20;;;22.50;99.90;;;;;;5048155;28;20037;-71
2022/07/09 10:06:42;;;;;;;4.45;1.08;;;22.70;99.90;;;;;;5054685;28;20029;-71
2022/07/09 10:09:12;;;;;;;4.53;1.58;;;22.90;99.90;;;;;;5036785;28;20041;-72
2022/07/09 10:11:44;;;;;;;4.53;1.55;;;23.20;99.90;;;;;;5061173;28;20040;-71
2022/07/09 10:14:28;;;;;;;4.43;1.05;;;23.10;99.90;;;;;;5058135;28;20036;-72
2022/07/09 10:16:54;;;;;;;7.40;1.33;;;23.10;99.90;;;;;;5043898;28;20052;-71
2022/07/09 10:19:27;;;;;;;3.47;1.20;;;23.10;99.90;;;;;;5069388;28;20115;-72
2022/07/09 10:21:54;;;;;;;4.15;1.45;;;23.20;99.90;;;;;;5028870;28;20047;-73
2022/07/09 10:24:28;;;;;;;9.63;1.23;;;23.20;99.90;;;;;;5056217;28;20040;-74
2022/07/09 10:27:04;;;;;;;6.97;1.90;;;23.20;99.90;;;;;;5053955;28;20457;-71
2022/07/09 10:29:29;;;;;;;5.93;1.83;;;23.50;99.90;;;;;;5045773;28;20471;-72
2022/07/09 10:31:56;;;;;;;6.38;1.65;;;23.80;99.90;;;;;;5065128;28;20052;-71
2022/07/09 10:34:31;;;;;;;4.00;1.48;;;23.80;99.90;;;;;;5059249;28;20047;-71
2022/07/09 10:37:02;;;;;;;4.90;1.55;;;24.00;99.90;;;;;;5056761;28;20052;-71
2022/07/09 10:39:29;;;;;;;3.67;1.27;;;23.90;99.90;;;;;;5042679;28;20073;-72
2022/07/09 10:42:06;;;;;;;6.82;2.10;;;23.70;99.90;;;;;;5036853;28;20457;-73
2022/07/09 10:44:42;;;;;;;3.15;1.05;;;23.70;99.90;;;;;;5063163;28;20083;-71
2022/07/09 10:47:08;;;;;;;3.95;1.17;;;23.80;99.90;;;;;;5036607;28;20098;-69
2022/07/09 10:49:35;;;;;;;5.57;1.48;;;23.80;99.90;;;;;;5036678;28;20056;-69
2022/07/09 10:52:01;;;;;;;5.95;1.45;;;23.20;99.90;;;;;;5036666;28;20087;-71
2022/07/09 10:54:27;;;;;;;8.27;1.77;;;22.50;99.90;;;;;;5073811;28;20053;-72
2022/07/09 10:56:54;;;;;;;3.83;1.15;;;22.00;99.90;;;;;;5060173;28;20045;-70
2022/07/09 10:59:20;;;;;;;5.55;1.63;;;21.40;99.90;;;;;;5056255;28;20136;-71
2022/07/09 11:01:46;;;;;;;6.70;1.65;;;21.10;99.90;;;;;;5056259;28;20120;-73
2022/07/09 11:04:22;;;;;;;7.40;2.00;;;21.00;99.90;;;;;;5076543;28;20048;-73
2022/07/09 11:06:48;;;;;;;5.82;1.50;;;20.90;99.90;;;;;;5077905;28;20056;-71
2022/07/09 11:09:14;;;;;;;6.18;1.30;;;20.80;99.90;;;;;;5060392;28;20475;-71
2022/07/09 11:11:44;;;;;;;6.75;2.03;;;20.70;99.90;;;;;;5077519;28;20078;-72
2022/07/09 11:14:13;;;;;;;6.15;1.60;;;20.70;99.90;;;;;;5077627;28;20041;-72
2022/07/09 11:16:39;;;;;;;5.22;1.50;;;20.60;99.90;;;;;;5077706;28;20056;-71
2022/07/09 11:19:19;;;;;;;4.38;2.25;;;20.90;99.90;;;;;;5059844;28;20048;-72
2022/07/09 11:21:45;;;;;;;5.72;1.73;;;21.10;99.90;;;;;;5077102;28;20445;-72
2022/07/09 11:24:15;;;;;;;7.25;1.63;;;21.30;99.90;;;;;;5059896;28;20449;-72
2022/07/09 11:26:44;;;;;;;7.38;1.30;;;21.60;99.90;;;;;;5059552;28;20342;-72
2022/07/09 11:29:13;;;;;;;5.25;1.40;;;21.80;99.90;;;;;;5077566;28;20032;-72
2022/07/09 11:31:50;;;;;;;6.25;1.38;;;21.80;99.90;;;;;;5059761;28;20066;-72
2022/07/09 11:34:17;;;;;;;3.42;1.20;;;21.50;99.90;;;;;;5059629;28;20047;-72
2022/07/09 11:36:47;;;;;;;8.05;1.60;;;21.30;99.90;;;;;;5077208;28;20055;-71
2022/07/09 11:39:24;;;;;;;4.97;1.52;;;21.40;99.90;;;;;;5042873;28;20045;-73
2022/07/09 11:41:51;;;;;;;5.25;1.00;;;21.50;99.90;;;;;;5043728;28;20059;-71
2022/07/09 11:44:24;;;;;;;5.13;1.00;;;21.50;99.90;;;;;;5079605;28;20047;-70
2022/07/09 11:47:22;;;;;;;2.58;1.00;;;21.60;99.90;;;;;;5079468;28;20048;-72
2022/07/09 11:49:50;;;;;;;3.78;1.13;;;21.90;99.90;;;;;;5078222;28;20345;-72
2022/07/09 11:52:24;;;;;;;3.78;1.20;;;21.80;99.90;;;;;;5079477;28;20048;-72
2022/07/09 11:54:56;;;;;;;1.77;0.70;;;22.10;99.90;;;;;;5097696;28;20066;-72
2022/07/09 11:57:25;;;;;;;1.30;0.50;;;22.20;99.90;;;;;;5096894;28;20050;-71
2022/07/09 11:59:51;;;;;;;3.10;0.70;;;22.40;99.90;;;;;;5078833;28;20052;-72
2022/07/09 12:02:39;;;;;;;5.15;1.30;;;22.50;99.90;;;;;;5079189;28;20433;-72
2022/07/09 12:05:06;;;;;;;4.28;1.02;;;22.70;99.50;;;;;;5079809;28;20044;-72
2022/07/09 12:07:34;;;;;;;2.35;1.00;;;22.70;98.50;;;;;;5079174;28;20036;-73
2022/07/09 12:10:08;;;;;;;2.63;0.75;;;22.60;97.40;;;;;;5074894;28;20123;-71
2022/07/09 12:12:35;;;;;;;5.82;1.05;;;22.50;97.70;;;;;;5059119;28;20052;-74
2022/07/09 12:15:04;;;;;;;3.03;1.13;;;22.20;98.20;;;;;;5058541;28;20040;-72
2022/07/09 12:17:30;;;;;;;3.80;0.95;;;22.20;98.30;;;;;;5058633;28;20063;-72
2022/07/09 12:19:58;;;;;;;4.65;0.90;;;22.20;98.40;;;;;;5058846;28;20086;-71
2022/07/09 12:22:24;;;;;;;4.20;0.90;;;22.40;99.20;;;;;;5058794;28;20457;-71
2022/07/09 12:24:51;;;;;;;6.80;1.20;;;22.40;98.40;;;;;;5058666;28;20115;-71
2022/07/09 12:27:17;;;;;;;6.15;1.23;;;22.30;98.90;;;;;;5058764;28;20124;-73
2022/07/09 12:29:42;;;;;;;5.07;0.95;;;22.10;98.90;;;;;;5059362;28;20116;-73
2022/07/09 12:32:08;;;;;;;2.63;1.00;;;22.10;99.00;;;;;;5042067;28;20102;-72
2022/07/09 12:34:35;;;;;;;2.67;1.00;;;21.90;99.30;;;;;;5058515;28;20372;-71
2022/07/09 12:37:00;;;;;;;4.95;0.80;;;21.90;99.00;;;;;;5058564;28;20036;-72
2022/07/09 12:39:26;;;;;;;4.30;1.45;;;22.00;98.60;;;;;;5058288;28;20465;-71
2022/07/09 12:41:52;;;;;;;3.78;0.90;;;22.30;98.00;;;;;;5058497;28;20040;-72
2022/07/09 12:44:17;;;;;;;1.88;0.80;;;22.20;98.10;;;;;;5075886;28;20040;-73
2022/07/09 12:46:43;;;;;;;3.67;0.77;;;22.10;98.50;;;;;;5058247;28;20032;-72